createdAt,value
2023-03-31T00:00:34.430Z,100391.84
2023-03-31T00:03:01.088Z,100391.25
2023-03-31T00:05:28.253Z,100382.25
2023-03-31T00:08:01.030Z,100383.28
2023-03-31T00:10:33.591Z,100372.41
2023-03-31T00:13:01.470Z,100362.00
2023-03-31T00:15:28.511Z,100355.66
2023-03-31T00:17:55.197Z,100346.03
2023-03-31T00:20:23.572Z,100340.72
2023-03-31T00:22:50.245Z,100339.94
2023-03-31T00:25:16.833Z,100339.94
2023-03-31T00:27:44.953Z,100331.72
2023-03-31T00:30:13.838Z,100327.44
2023-03-31T00:32:40.476Z,100318.66
2023-03-31T00:35:08.712Z,100322.91
2023-03-31T00:37:35.333Z,100311.25
2023-03-31T00:40:02.140Z,100308.59
2023-03-31T00:42:28.744Z,100302.22
2023-03-31T00:45:13.840Z,100297.16
2023-03-31T00:47:42.898Z,100295.31
2023-03-31T00:50:20.585Z,100288.13
2023-03-31T00:52:51.914Z,100282.81
2023-03-31T00:55:24.373Z,100274.84
2023-03-31T00:57:54.008Z,100277.50
2023-03-31T01:00:23.163Z,100266.88
2023-03-31T01:02:56.164Z,100263.41
2023-03-31T01:05:28.164Z,100262.34
2023-03-31T01:07:56.773Z,100263.41
2023-03-31T01:10:25.073Z,100249.31
2023-03-31T01:12:54.940Z,100249.06
2023-03-31T01:15:22.881Z,100238.41
2023-03-31T01:17:51.307Z,100243.47
2023-03-31T01:20:48.999Z,100229.16
2023-03-31T01:23:57.499Z,100221.41
2023-03-31T01:26:39.177Z,100215.06
2023-03-31T01:29:49.571Z,100206.03
2023-03-31T01:32:47.072Z,100204.16
2023-03-31T01:35:13.695Z,100194.59
2023-03-31T01:38:17.876Z,100189.00
2023-03-31T01:41:06.236Z,100177.59
2023-03-31T01:43:44.639Z,100168.81
2023-03-31T01:46:29.560Z,100168.00
2023-03-31T01:49:37.801Z,100162.69
2023-03-31T01:52:12.704Z,100156.31
2023-03-31T01:54:50.854Z,100142.22
2023-03-31T01:57:19.884Z,100140.09
2023-03-31T01:59:51.581Z,100133.44
2023-03-31T02:02:25.935Z,100130.50
2023-03-31T02:04:59.392Z,100127.84
2023-03-31T02:07:43.284Z,100114.56
2023-03-31T02:10:12.629Z,100112.97
2023-03-31T02:12:43.239Z,100111.09
2023-03-31T02:15:14.673Z,100108.44
2023-03-31T02:17:45.955Z,100103.13
2023-03-31T02:20:15.935Z,100094.34
2023-03-31T02:22:47.742Z,100085.31
2023-03-31T02:25:19.243Z,100080.78
2023-03-31T02:27:53.860Z,100081.84
2023-03-31T02:30:21.067Z,100073.88
2023-03-31T02:32:47.793Z,100068.56
2023-03-31T02:35:23.349Z,100052.34
2023-03-31T02:37:50.018Z,100040.13
2023-03-31T02:40:22.810Z,100035.59
2023-03-31T02:42:49.654Z,100032.13
2023-03-31T02:45:41.120Z,100029.47
2023-03-31T02:48:19.311Z,100021.50
2023-03-31T02:50:59.550Z,100014.31
2023-03-31T02:53:53.561Z,99999.44
2023-03-31T02:56:27.391Z,99998.38
2023-03-31T02:59:16.729Z,99983.47
2023-03-31T03:01:52.326Z,99983.47
2023-03-31T03:07:46.851Z,99974.22
2023-03-31T03:10:33.905Z,99955.81
2023-03-31T03:13:03.657Z,99952.13
2023-03-31T03:15:30.732Z,99940.66
2023-03-31T03:17:58.723Z,99938.00
2023-03-31T03:20:26.025Z,99935.63
2023-03-31T03:22:52.762Z,99932.94
2023-03-31T03:25:20.797Z,99925.78
2023-03-31T03:27:48.685Z,99916.75
2023-03-31T03:30:15.647Z,99923.91
2023-03-31T03:32:43.833Z,99918.59
2023-03-31T03:35:11.242Z,99915.16
2023-03-31T03:37:40.160Z,99903.72
2023-03-31T03:40:11.031Z,99901.06
2023-03-31T03:42:38.875Z,99897.59
2023-03-31T03:45:06.686Z,99891.47
2023-03-31T03:47:37.234Z,99883.50
2023-03-31T03:50:04.764Z,99865.69
2023-03-31T03:52:31.274Z,99866.47
2023-03-31T03:54:57.961Z,99856.91
2023-03-31T03:57:24.489Z,99860.38
2023-03-31T03:59:51.394Z,99854.25
2023-03-31T04:02:17.961Z,99844.41
2023-03-31T04:04:44.611Z,99842.81
2023-03-31T04:07:11.628Z,99842.00
2023-03-31T04:09:38.292Z,99831.63
2023-03-31T04:12:05.164Z,99834.28
2023-03-31T04:14:31.774Z,99820.97
2023-03-31T04:16:58.874Z,99817.53
2023-03-31T04:19:28.382Z,99812.22
2023-03-31T04:21:58.908Z,99803.44
2023-03-31T04:24:30.727Z,99793.59
2023-03-31T04:26:58.022Z,99789.09
2023-03-31T04:29:26.763Z,99774.19
2023-03-31T04:31:58.816Z,99758.25
2023-03-31T04:34:36.077Z,99752.94
2023-03-31T04:37:03.806Z,99745.97
2023-03-31T04:39:34.636Z,99736.41
2023-03-31T04:42:01.481Z,99736.69
2023-03-31T04:44:28.419Z,99721.78
2023-03-31T04:46:56.280Z,99711.16
2023-03-31T04:49:23.262Z,99703.41
2023-03-31T04:51:49.986Z,99709.53
2023-03-31T04:54:16.815Z,99706.06
2023-03-31T04:56:43.446Z,99697.56
2023-03-31T04:59:10.112Z,99702.31
2023-03-31T05:01:37.214Z,99692.75
2023-03-31T05:04:05.056Z,99683.16
2023-03-31T05:06:39.287Z,99674.41
2023-03-31T05:09:06.511Z,99677.31
2023-03-31T05:11:33.026Z,99676.22
2023-03-31T05:13:59.684Z,99665.03
2023-03-31T05:16:26.702Z,99660.78
2023-03-31T05:18:54.409Z,99656.56
2023-03-31T05:21:23.335Z,99650.22
2023-03-31T05:23:50.255Z,99652.13
2023-03-31T05:26:17.139Z,99636.19
2023-03-31T05:28:44.375Z,99631.72
2023-03-31T05:31:13.407Z,99637.84
2023-03-31T05:33:42.189Z,99636.03
2023-03-31T05:36:17.417Z,99628.91
2023-03-31T05:38:44.711Z,99635.06
2023-03-31T05:41:12.015Z,99625.25
2023-03-31T05:43:40.149Z,99617.03
2023-03-31T05:46:07.103Z,99606.94
2023-03-31T05:48:34.255Z,99608.56
2023-03-31T05:51:02.133Z,99606.72
2023-03-31T05:53:29.081Z,99598.50
2023-03-31T05:56:00.313Z,99593.47
2023-03-31T05:58:26.985Z,99592.94
2023-03-31T06:01:09.059Z,99592.72
2023-03-31T06:03:38.443Z,99596.78
2023-03-31T06:06:06.332Z,99578.91
2023-03-31T06:08:33.013Z,99576.78
2023-03-31T06:10:59.818Z,99574.09
2023-03-31T06:13:26.514Z,99583.13
2023-03-31T06:15:55.385Z,99565.50
2023-03-31T06:18:22.130Z,99568.38
2023-03-31T06:20:48.981Z,99568.09
2023-03-31T06:23:15.680Z,99564.31
2023-03-31T06:25:50.925Z,99568.53
2023-03-31T06:28:18.352Z,99558.88
2023-03-31T06:30:44.875Z,99555.59
2023-03-31T06:33:11.667Z,99556.91
2023-03-31T06:35:39.253Z,99543.25
2023-03-31T06:38:06.703Z,99544.81
2023-03-31T06:40:33.843Z,99546.63
2023-03-31T06:43:00.759Z,99542.34
2023-03-31T06:45:27.682Z,99545.25
2023-03-31T06:47:54.209Z,99545.25
2023-03-31T06:50:20.766Z,99542.81
2023-03-31T06:52:47.927Z,99536.91
2023-03-31T06:55:16.140Z,99531.59
2023-03-31T06:57:42.879Z,99534.25
2023-03-31T07:00:10.042Z,99531.34
2023-03-31T07:02:37.302Z,99528.13
2023-03-31T07:05:04.701Z,99526.59
2023-03-31T07:07:32.683Z,99532.50
2023-03-31T07:09:59.125Z,99525.56
2023-03-31T07:12:26.209Z,99526.66
2023-03-31T07:14:52.684Z,99522.16
2023-03-31T07:17:19.236Z,99524.59
2023-03-31T07:19:48.021Z,99517.19
2023-03-31T07:22:15.899Z,99527.38
2023-03-31T07:24:43.499Z,99524.75
2023-03-31T07:27:10.712Z,99523.19
2023-03-31T07:29:37.377Z,99513.03
2023-03-31T07:32:05.021Z,99508.28
2023-03-31T07:34:31.533Z,99508.09
2023-03-31T07:36:58.104Z,99516.91
2023-03-31T07:39:25.344Z,99504.66
2023-03-31T07:41:52.195Z,99510.78
2023-03-31T07:44:19.712Z,99515.63
2023-03-31T07:46:46.402Z,99506.31
2023-03-31T07:49:16.127Z,99506.56
2023-03-31T07:51:44.624Z,99502.03
2023-03-31T07:54:12.112Z,99496.69
2023-03-31T07:56:38.838Z,99496.19
2023-03-31T07:59:05.803Z,99491.41
2023-03-31T08:01:32.997Z,99492.19
2023-03-31T08:04:00.419Z,99489.03
2023-03-31T08:06:27.881Z,99490.06
2023-03-31T08:08:55.325Z,99494.59
2023-03-31T08:11:22.059Z,99491.69
2023-03-31T08:13:48.978Z,99486.34
2023-03-31T08:16:16.097Z,99485.28
2023-03-31T08:18:42.979Z,99481.28
2023-03-31T08:21:10.032Z,99472.44
2023-03-31T08:23:37.145Z,99477.25
2023-03-31T08:26:18.178Z,99476.41
2023-03-31T08:28:46.495Z,99463.59
2023-03-31T08:31:16.648Z,99466.53
2023-03-31T08:33:43.286Z,99462.28
2023-03-31T08:36:11.138Z,99463.09
2023-03-31T08:38:39.549Z,99461.50
2023-03-31T08:41:12.702Z,99463.91
2023-03-31T08:43:45.954Z,99450.84
2023-03-31T08:46:15.943Z,99454.53
2023-03-31T08:48:48.897Z,99444.91
2023-03-31T08:51:29.688Z,99448.13
2023-03-31T08:54:16.832Z,99441.94
2023-03-31T08:56:49.299Z,99432.63
2023-03-31T08:59:31.730Z,99444.66
2023-03-31T09:02:20.226Z,99439.81
2023-03-31T09:05:09.667Z,99443.56
2023-03-31T09:07:39.319Z,99434.22
2023-03-31T09:10:29.083Z,99431.81
2023-03-31T09:16:14.189Z,99429.09
2023-03-31T09:18:47.122Z,99424.53
2023-03-31T09:21:26.337Z,99420.53
2023-03-31T09:23:57.322Z,99416.25
2023-03-31T09:26:45.007Z,99410.41
2023-03-31T09:29:24.372Z,99406.97
2023-03-31T09:31:51.048Z,99413.44
